createdAt,value
2023-05-04T00:00:19.881Z,46.45
2023-05-04T00:02:47.571Z,47.65
2023-05-04T00:05:15.194Z,47.31
2023-05-04T00:07:42.885Z,45.39
2023-05-04T00:10:11.053Z,46.11
2023-05-04T00:12:39.555Z,46.98
2023-05-04T00:15:07.929Z,49.11
2023-05-04T00:17:35.613Z,47.22
2023-05-04T00:20:04.211Z,44.68
2023-05-04T00:22:32.432Z,44.42
2023-05-04T00:25:00.038Z,43.78
2023-05-04T00:27:27.702Z,44.76
2023-05-04T00:29:55.324Z,45.79
2023-05-04T00:32:23.140Z,45.31
2023-05-04T00:34:51.061Z,46.41
2023-05-04T00:37:18.744Z,48.44
2023-05-04T00:39:46.306Z,47.48
2023-05-04T00:42:13.981Z,48.13
2023-05-04T00:44:41.830Z,48.22
2023-05-04T00:47:09.677Z,48.50
2023-05-04T00:49:37.750Z,47.16
2023-05-04T00:52:06.056Z,46.76
2023-05-04T00:54:34.723Z,46.58
2023-05-04T00:57:03.502Z,48.32
2023-05-04T00:59:31.154Z,48.22
2023-05-04T01:01:58.851Z,49.60
2023-05-04T01:04:27.059Z,49.77
2023-05-04T01:07:11.691Z,51.43
2023-05-04T01:09:54.256Z,49.84
2023-05-04T01:12:52.913Z,49.04
2023-05-04T01:15:21.012Z,49.12
2023-05-04T01:17:49.621Z,48.94
2023-05-04T01:20:17.471Z,48.34
2023-05-04T01:22:45.374Z,48.31
2023-05-04T01:25:13.173Z,48.23
2023-05-04T01:27:50.379Z,47.42
2023-05-04T01:30:29.646Z,47.11
2023-05-04T01:33:00.625Z,47.79
2023-05-04T01:35:30.477Z,47.24
2023-05-04T01:37:59.630Z,47.58
2023-05-04T01:40:27.409Z,46.95
2023-05-04T01:42:55.166Z,46.85
2023-05-04T01:45:22.951Z,47.76
2023-05-04T01:47:50.874Z,47.90
2023-05-04T01:50:18.643Z,47.24
2023-05-04T01:52:46.911Z,47.94
2023-05-04T01:55:14.554Z,48.36
2023-05-04T01:57:42.167Z,48.35
2023-05-04T02:00:10.646Z,47.62
2023-05-04T02:02:44.237Z,47.18
2023-05-04T02:05:16.387Z,46.40
2023-05-04T02:07:44.151Z,47.26
2023-05-04T02:10:12.081Z,47.72
2023-05-04T02:12:40.341Z,46.74
2023-05-04T02:15:08.959Z,46.54
2023-05-04T02:17:36.667Z,46.42
2023-05-04T02:20:08.090Z,45.88
2023-05-04T02:22:36.006Z,46.20
2023-05-04T02:25:03.793Z,46.64
2023-05-04T02:27:31.645Z,46.55
2023-05-04T02:29:59.367Z,47.19
2023-05-04T02:32:27.140Z,47.06
2023-05-04T02:34:54.932Z,47.81
2023-05-04T02:37:22.600Z,48.20
2023-05-04T02:39:50.212Z,46.78
2023-05-04T02:42:18.983Z,48.11
2023-05-04T02:44:46.696Z,46.87
2023-05-04T02:47:14.392Z,47.54
2023-05-04T02:49:42.100Z,47.75
2023-05-04T02:52:10.149Z,47.55
2023-05-04T02:54:38.531Z,47.45
2023-05-04T02:57:07.123Z,48.42
2023-05-04T02:59:34.794Z,48.43
2023-05-04T03:02:02.440Z,49.47
2023-05-04T03:04:30.278Z,47.35
2023-05-04T03:06:57.921Z,46.94
2023-05-04T03:09:25.550Z,46.74
2023-05-04T03:11:53.318Z,46.75
2023-05-04T03:14:21.125Z,48.07
2023-05-04T03:16:48.970Z,48.37
2023-05-04T03:19:19.038Z,47.58
2023-05-04T03:21:46.970Z,46.83
2023-05-04T03:24:17.432Z,46.56
2023-05-04T03:26:45.363Z,45.93
2023-05-04T03:29:13.151Z,47.20
2023-05-04T03:31:41.510Z,46.69
2023-05-04T03:34:12.704Z,46.17
2023-05-04T03:36:40.936Z,45.73
2023-05-04T03:39:08.568Z,47.66
2023-05-04T03:41:37.508Z,46.30
2023-05-04T03:44:05.151Z,46.25
2023-05-04T03:46:32.893Z,47.40
2023-05-04T03:49:00.669Z,48.44
2023-05-04T03:51:29.000Z,46.56
2023-05-04T03:53:56.734Z,47.55
2023-05-04T03:56:24.603Z,46.36
2023-05-04T03:58:52.250Z,46.64
2023-05-04T04:01:24.228Z,45.82
2023-05-04T04:03:51.999Z,45.62
2023-05-04T04:06:22.770Z,45.88
2023-05-04T04:08:50.608Z,45.31
2023-05-04T04:11:18.220Z,45.19
2023-05-04T04:13:45.872Z,45.77
2023-05-04T04:16:13.758Z,44.87
2023-05-04T04:18:41.417Z,44.78
2023-05-04T04:21:10.376Z,44.98
2023-05-04T04:23:38.211Z,45.34
2023-05-04T04:26:08.655Z,45.61
2023-05-04T04:28:36.745Z,46.03
2023-05-04T04:31:04.691Z,47.11
2023-05-04T04:33:32.854Z,46.02
2023-05-04T04:36:00.442Z,45.85
2023-05-04T04:38:28.113Z,45.64
2023-05-04T04:40:55.663Z,45.32
2023-05-04T04:43:23.337Z,45.84
2023-05-04T04:45:51.013Z,45.87
2023-05-04T04:48:21.344Z,45.68
2023-05-04T04:50:49.062Z,45.26
2023-05-04T04:53:16.801Z,45.24
2023-05-04T04:55:44.892Z,44.80
2023-05-04T04:58:12.958Z,44.38
2023-05-04T05:00:40.848Z,44.56
2023-05-04T05:03:08.657Z,44.82
2023-05-04T05:05:36.967Z,44.88
2023-05-04T05:08:04.896Z,44.17
2023-05-04T05:10:32.655Z,44.82
2023-05-04T05:13:01.556Z,45.05
2023-05-04T05:15:29.313Z,45.58
2023-05-04T05:17:59.766Z,44.66
2023-05-04T05:20:27.583Z,44.42
2023-05-04T05:22:55.337Z,44.38
2023-05-04T05:25:23.340Z,44.25
2023-05-04T05:27:51.477Z,43.80
2023-05-04T05:30:19.413Z,43.02
2023-05-04T05:32:49.217Z,43.48
2023-05-04T05:35:17.305Z,42.71
2023-05-04T05:37:45.413Z,42.82
2023-05-04T05:40:14.085Z,43.62
2023-05-04T05:42:45.069Z,42.85
2023-05-04T05:45:12.845Z,42.47
2023-05-04T05:47:40.512Z,41.78
2023-05-04T05:50:08.834Z,42.69
2023-05-04T05:52:36.528Z,42.61
2023-05-04T05:55:07.358Z,41.14
2023-05-04T05:57:35.056Z,40.79
2023-05-04T06:00:03.080Z,40.84
2023-05-04T06:02:40.226Z,40.03
2023-05-04T06:05:08.329Z,40.26
2023-05-04T06:07:36.213Z,40.16
2023-05-04T06:10:04.680Z,40.56
2023-05-04T06:12:32.647Z,40.23
2023-05-04T06:15:00.433Z,40.12
2023-05-04T06:17:28.053Z,38.99
2023-05-04T06:19:55.930Z,38.56
2023-05-04T06:22:23.578Z,39.54
2023-05-04T06:24:53.412Z,39.66
2023-05-04T06:27:24.150Z,40.66
2023-05-04T06:29:52.367Z,38.76
2023-05-04T06:32:20.108Z,39.17
2023-05-04T06:34:47.734Z,40.19
2023-05-04T06:37:16.150Z,39.05
2023-05-04T06:39:43.866Z,39.44
2023-05-04T06:42:12.166Z,38.82
2023-05-04T06:44:41.476Z,38.94
2023-05-04T06:47:09.204Z,37.54
2023-05-04T06:49:36.832Z,36.30
2023-05-04T06:52:04.787Z,37.16
2023-05-04T06:54:32.557Z,36.03
2023-05-04T06:57:03.212Z,36.59
2023-05-04T06:59:31.256Z,35.54
2023-05-04T07:01:58.958Z,35.62
2023-05-04T07:04:26.751Z,36.32
2023-05-04T07:06:55.139Z,37.42
2023-05-04T07:09:23.084Z,37.06
2023-05-04T07:11:50.688Z,35.33
2023-05-04T07:14:18.397Z,34.48
2023-05-04T07:16:46.145Z,34.13
2023-05-04T07:19:14.384Z,33.49
2023-05-04T07:21:42.884Z,33.34
2023-05-04T07:24:10.589Z,32.12
2023-05-04T07:26:38.236Z,33.41
2023-05-04T07:29:06.043Z,33.19
2023-05-04T07:31:34.867Z,32.22
2023-05-04T07:34:02.490Z,31.11
2023-05-04T07:36:30.674Z,30.33
2023-05-04T07:38:58.318Z,30.63
2023-05-04T07:41:26.328Z,30.22
2023-05-04T07:43:54.013Z,30.60
2023-05-04T07:46:21.773Z,30.24
2023-05-04T07:48:49.597Z,29.34
2023-05-04T07:51:17.352Z,29.97
2023-05-04T07:53:44.944Z,30.87
2023-05-04T07:56:13.490Z,29.97
2023-05-04T07:58:41.615Z,29.60
2023-05-04T08:01:09.211Z,28.81
2023-05-04T08:03:36.868Z,30.21
2023-05-04T08:06:04.581Z,29.20
2023-05-04T08:08:32.179Z,28.45
2023-05-04T08:11:11.664Z,28.71
2023-05-04T08:13:40.700Z,27.47
2023-05-04T08:16:12.070Z,27.51
2023-05-04T08:18:39.719Z,26.83
2023-05-04T08:21:07.386Z,27.49
2023-05-04T08:23:36.264Z,26.86
2023-05-04T08:26:05.067Z,27.79
2023-05-04T08:28:37.923Z,27.09
2023-05-04T08:31:06.534Z,27.28
2023-05-04T08:33:34.659Z,25.85
2023-05-04T08:36:04.604Z,25.75
2023-05-04T08:38:32.559Z,25.08
2023-05-04T08:41:04.939Z,25.15
2023-05-04T08:43:36.428Z,24.77
2023-05-04T08:46:06.108Z,26.68
2023-05-04T08:48:34.863Z,26.37
2023-05-04T08:51:04.466Z,25.19
2023-05-04T08:53:35.310Z,24.49
2023-05-04T08:56:09.132Z,23.40
2023-05-04T08:58:42.433Z,23.82
2023-05-04T09:01:11.328Z,24.43
2023-05-04T09:03:39.898Z,23.58
2023-05-04T09:06:08.696Z,23.54
2023-05-04T09:08:36.524Z,22.60
2023-05-04T09:11:05.082Z,23.43
2023-05-04T09:13:32.837Z,23.68
2023-05-04T09:16:00.550Z,24.52
2023-05-04T09:18:44.312Z,24.63
2023-05-04T09:21:12.400Z,24.48
2023-05-04T09:23:53.964Z,25.59
2023-05-04T09:26:30.436Z,25.64
2023-05-04T09:29:14.257Z,25.03
2023-05-04T09:31:52.706Z,24.70
2023-05-04T09:34:21.427Z,22.82
2023-05-04T09:37:01.514Z,22.31
2023-05-04T09:39:30.473Z,24.51
2023-05-04T09:41:58.147Z,25.83
2023-05-04T09:44:29.505Z,25.06
2023-05-04T09:46:59.324Z,23.25
2023-05-04T09:49:34.641Z,24.50
2023-05-04T09:52:05.095Z,23.47
2023-05-04T09:54:35.799Z,22.20
2023-05-04T09:57:15.367Z,23.28
2023-05-04T09:59:43.456Z,23.10
2023-05-04T10:02:21.835Z,22.74
2023-05-04T10:04:52.714Z,22.87
2023-05-04T10:07:21.108Z,22.57
2023-05-04T10:09:50.258Z,21.94
2023-05-04T10:12:18.438Z,21.55
2023-05-04T10:14:47.276Z,22.04
2023-05-04T10:18:02.027Z,22.27
2023-05-04T10:21:08.052Z,23.09
2023-05-04T10:24:10.182Z,21.51
2023-05-04T10:27:09.700Z,21.20
2023-05-04T10:29:40.594Z,21.33
2023-05-04T10:32:22.661Z,20.72
2023-05-04T10:34:51.641Z,21.70
2023-05-04T10:37:21.767Z,20.68
2023-05-04T10:39:54.415Z,21.12
2023-05-04T10:42:22.285Z,19.62
2023-05-04T10:44:57.824Z,19.83
2023-05-04T10:47:34.282Z,18.66
2023-05-04T10:50:15.500Z,20.26
2023-05-04T10:52:53.829Z,21.75
2023-05-04T10:55:22.579Z,21.63
2023-05-04T10:58:05.886Z,21.12
2023-05-04T11:00:42.176Z,20.83
2023-05-04T11:03:15.026Z,19.86
2023-05-04T11:05:51.239Z,20.09
2023-05-04T11:08:34.354Z,20.06
2023-05-04T11:11:07.876Z,19.27
2023-05-04T11:13:44.130Z,19.46
2023-05-04T11:16:13.095Z,18.84
2023-05-04T11:18:41.251Z,19.93
2023-05-04T11:21:09.680Z,19.54
2023-05-04T11:23:38.553Z,19.55
2023-05-04T11:26:12.378Z,18.59
2023-05-04T11:28:40.364Z,19.13
2023-05-04T11:31:17.160Z,18.59
2023-05-04T11:33:52.446Z,18.30
2023-05-04T11:36:22.479Z,19.30
2023-05-04T11:38:50.978Z,18.78
2023-05-04T11:41:19.118Z,19.04
2023-05-04T11:43:47.797Z,18.05
2023-05-04T11:46:16.562Z,17.76
2023-05-04T11:48:47.852Z,16.66
2023-05-04T11:51:15.809Z,16.10
2023-05-04T11:53:44.814Z,17.60
2023-05-04T11:56:12.663Z,17.66
2023-05-04T11:58:40.649Z,17.22
2023-05-04T12:01:08.582Z,17.00
2023-05-04T12:03:53.109Z,17.83
2023-05-04T12:06:34.495Z,17.37
2023-05-04T12:09:09.915Z,16.98
2023-05-04T12:11:38.403Z,17.60
2023-05-04T12:14:10.871Z,17.76
2023-05-04T12:16:39.357Z,18.60
2023-05-04T12:19:12.928Z,18.13
2023-05-04T12:21:54.808Z,17.68
2023-05-04T12:24:24.498Z,17.90
2023-05-04T12:26:52.483Z,18.55
2023-05-04T12:29:20.352Z,18.30
2023-05-04T12:31:48.104Z,17.75
2023-05-04T12:34:15.789Z,18.39
2023-05-04T12:36:44.410Z,17.07
2023-05-04T12:39:12.186Z,17.71
2023-05-04T12:41:40.149Z,17.66
2023-05-04T12:44:09.167Z,17.57
2023-05-04T12:46:37.312Z,17.19
2023-05-04T12:49:05.749Z,16.63
2023-05-04T12:51:33.455Z,17.07
2023-05-04T12:54:01.086Z,16.69
2023-05-04T12:56:28.896Z,16.92
2023-05-04T12:58:56.519Z,16.89
2023-05-04T13:01:24.345Z,18.42
2023-05-04T13:03:52.019Z,18.28
2023-05-04T13:06:19.902Z,17.68
2023-05-04T13:08:48.403Z,17.88
2023-05-04T13:11:19.182Z,18.93
2023-05-04T13:13:47.107Z,18.28
2023-05-04T13:16:15.062Z,18.93
2023-05-04T13:18:43.293Z,19.50
2023-05-04T13:21:11.796Z,18.26
2023-05-04T13:23:39.445Z,17.97
2023-05-04T13:26:07.089Z,17.51
2023-05-04T13:28:35.373Z,17.04
2023-05-04T13:31:09.607Z,16.86
2023-05-04T13:33:40.165Z,16.60
2023-05-04T13:36:07.965Z,16.71
2023-05-04T13:38:35.534Z,17.65
2023-05-04T13:41:03.192Z,17.57
2023-05-04T13:43:31.612Z,17.03
2023-05-04T13:46:03.818Z,15.74
2023-05-04T13:48:33.691Z,15.63
2023-05-04T13:51:03.907Z,16.18
2023-05-04T13:53:31.727Z,17.15
2023-05-04T13:55:59.326Z,16.47
2023-05-04T13:58:26.954Z,16.63
2023-05-04T14:00:56.216Z,17.78
2023-05-04T14:03:24.014Z,18.34
2023-05-04T14:05:52.208Z,18.87
2023-05-04T14:08:19.997Z,17.88
2023-05-04T14:10:47.669Z,17.09
2023-05-04T14:13:15.562Z,15.91
2023-05-04T14:15:43.266Z,15.83
2023-05-04T14:18:11.303Z,15.69
2023-05-04T14:20:39.008Z,15.84
2023-05-04T14:23:06.662Z,15.63
2023-05-04T14:25:34.281Z,16.10
2023-05-04T14:28:02.180Z,16.38
2023-05-04T14:30:29.942Z,15.50
2023-05-04T14:32:58.223Z,15.46
2023-05-04T14:35:26.123Z,14.04
2023-05-04T14:37:53.891Z,15.13
2023-05-04T14:40:21.668Z,16.61
2023-05-04T14:42:49.965Z,18.15
2023-05-04T14:45:17.826Z,18.14
2023-05-04T14:47:45.690Z,16.65
2023-05-04T14:50:13.716Z,16.19
2023-05-04T14:52:41.458Z,15.85
2023-05-04T14:55:09.555Z,15.97
2023-05-04T14:57:37.463Z,15.71
2023-05-04T15:00:08.336Z,14.39
2023-05-04T15:02:38.507Z,14.04
2023-05-04T15:05:07.294Z,14.63
2023-05-04T15:07:34.916Z,14.12
2023-05-04T15:10:03.502Z,14.07
2023-05-04T15:12:31.521Z,13.91
2023-05-04T15:15:00.698Z,14.04
2023-05-04T15:17:30.855Z,14.78
2023-05-04T15:20:02.079Z,14.96
2023-05-04T15:22:31.058Z,16.85
2023-05-04T15:24:58.700Z,16.56
2023-05-04T15:27:26.350Z,17.02
2023-05-04T15:29:54.720Z,15.47
2023-05-04T15:32:22.361Z,14.83
2023-05-04T15:35:01.014Z,15.20
2023-05-04T15:37:32.216Z,14.67
2023-05-04T15:40:02.330Z,14.82
2023-05-04T15:42:30.534Z,14.70
2023-05-04T15:44:58.242Z,14.05
2023-05-04T15:47:26.113Z,12.38
2023-05-04T15:49:53.739Z,12.42
2023-05-04T15:52:21.800Z,14.31
2023-05-04T15:54:49.735Z,15.07
2023-05-04T15:57:17.336Z,14.89
2023-05-04T15:59:47.637Z,14.56
2023-05-04T16:02:16.465Z,15.15
2023-05-04T16:04:44.061Z,15.33
2023-05-04T16:07:11.771Z,16.03
2023-05-04T16:09:39.335Z,16.28
2023-05-04T16:12:07.875Z,16.46
2023-05-04T16:14:36.053Z,16.46
2023-05-04T16:17:04.010Z,16.57
2023-05-04T16:19:31.737Z,16.88
2023-05-04T16:21:59.378Z,17.81
2023-05-04T16:24:27.082Z,17.50
2023-05-04T16:26:54.715Z,17.96
2023-05-04T16:29:23.624Z,18.65
2023-05-04T16:31:52.204Z,18.58
2023-05-04T16:34:19.810Z,17.94
2023-05-04T16:36:47.694Z,18.50
2023-05-04T16:39:16.404Z,17.75
2023-05-04T16:41:46.620Z,18.09
2023-05-04T16:44:15.011Z,18.72
2023-05-04T16:46:42.773Z,17.93
2023-05-04T16:49:12.534Z,18.83
2023-05-04T16:51:42.178Z,18.73
2023-05-04T16:54:09.867Z,18.48
2023-05-04T16:56:37.686Z,18.91
2023-05-04T16:59:05.510Z,18.48
2023-05-04T17:01:33.946Z,18.50
2023-05-04T17:04:02.020Z,18.47
2023-05-04T17:06:29.692Z,18.72
2023-05-04T17:08:57.235Z,18.74
2023-05-04T17:11:25.617Z,18.59
2023-05-04T17:13:53.275Z,19.12
2023-05-04T17:16:20.881Z,19.39
2023-05-04T17:18:48.930Z,18.91
2023-05-04T17:21:17.040Z,19.53
2023-05-04T17:23:44.659Z,19.53
2023-05-04T17:26:12.317Z,19.66
2023-05-04T17:28:39.878Z,19.37
2023-05-04T17:31:11.703Z,19.58
2023-05-04T17:33:39.640Z,20.40
2023-05-04T17:36:07.837Z,20.11
2023-05-04T17:38:35.813Z,20.20
2023-05-04T17:41:05.398Z,19.95
2023-05-04T17:43:34.186Z,20.17
2023-05-04T17:46:02.585Z,20.22
2023-05-04T17:48:33.509Z,21.00
2023-05-04T17:51:01.105Z,22.15
2023-05-04T17:53:29.335Z,21.90
2023-05-04T17:55:57.146Z,21.74
2023-05-04T17:58:24.865Z,22.53
2023-05-04T18:00:53.144Z,22.27
2023-05-04T18:03:21.218Z,22.33
2023-05-04T18:05:48.912Z,22.08
2023-05-04T18:08:16.521Z,22.78
2023-05-04T18:10:44.402Z,23.49
2023-05-04T18:13:12.106Z,23.43
2023-05-04T18:15:39.796Z,22.79
2023-05-04T18:18:07.691Z,22.48
2023-05-04T18:20:36.034Z,22.73
2023-05-04T18:23:03.701Z,22.48
2023-05-04T18:25:31.458Z,22.96
2023-05-04T18:27:59.510Z,22.89
2023-05-04T18:30:27.395Z,23.58
2023-05-04T18:32:55.127Z,23.26
2023-05-04T18:35:22.963Z,23.66
2023-05-04T18:37:50.858Z,23.77
2023-05-04T18:40:18.906Z,23.75
2023-05-04T18:42:46.708Z,23.73
2023-05-04T18:45:14.333Z,24.19
2023-05-04T18:47:42.218Z,24.05
2023-05-04T18:50:10.847Z,24.24
2023-05-04T18:52:38.537Z,24.44
2023-05-04T18:55:07.223Z,24.70
2023-05-04T18:57:34.899Z,24.97
2023-05-04T19:00:02.901Z,24.55
2023-05-04T19:02:31.489Z,24.47
2023-05-04T19:04:59.309Z,24.64
2023-05-04T19:07:26.935Z,24.64
2023-05-04T19:09:55.441Z,25.09
2023-05-04T19:12:23.919Z,25.23
2023-05-04T19:14:51.711Z,25.57
2023-05-04T19:17:19.370Z,25.13
2023-05-04T19:19:47.094Z,25.78
2023-05-04T19:22:15.633Z,26.17
2023-05-04T19:24:43.541Z,26.52
2023-05-04T19:27:11.157Z,26.58
2023-05-04T19:29:38.803Z,26.48
2023-05-04T19:32:19.814Z,26.99
2023-05-04T19:34:47.996Z,27.44
2023-05-04T19:37:15.638Z,27.93
2023-05-04T19:39:43.327Z,27.81
2023-05-04T19:42:11.856Z,27.56
2023-05-04T19:44:39.537Z,27.38
2023-05-04T19:47:07.180Z,27.37
2023-05-04T19:49:35.298Z,27.50
2023-05-04T19:52:02.926Z,27.97
2023-05-04T19:54:30.569Z,28.11
2023-05-04T19:56:58.203Z,27.72
2023-05-04T19:59:25.866Z,27.59
2023-05-04T20:01:53.514Z,27.88
2023-05-04T20:04:21.220Z,27.89
2023-05-04T20:06:48.822Z,28.08
2023-05-04T20:09:16.962Z,28.19
2023-05-04T20:11:44.656Z,28.34
2023-05-04T20:14:12.424Z,29.63
2023-05-04T20:16:39.998Z,29.28
2023-05-04T20:19:07.649Z,27.92
2023-05-04T20:21:35.235Z,28.02
2023-05-04T20:24:03.839Z,27.89
2023-05-04T20:26:31.423Z,28.11
2023-05-04T20:28:59.041Z,28.04
2023-05-04T20:31:26.957Z,28.41
2023-05-04T20:33:54.638Z,28.14
2023-05-04T20:36:22.485Z,27.63
2023-05-04T20:38:50.205Z,27.36
2023-05-04T20:41:18.171Z,27.40
2023-05-04T20:43:45.950Z,28.12
2023-05-04T20:46:13.580Z,28.19
2023-05-04T20:48:41.588Z,29.47
2023-05-04T20:51:14.650Z,30.47
2023-05-04T20:53:43.290Z,30.78
2023-05-04T20:56:11.349Z,30.30
2023-05-04T20:58:39.176Z,30.22
2023-05-04T21:01:07.410Z,30.84
2023-05-04T21:03:35.856Z,30.39
2023-05-04T21:06:04.913Z,30.23
2023-05-04T21:08:32.740Z,29.94
2023-05-04T21:11:00.617Z,30.35
2023-05-04T21:13:28.326Z,30.42
2023-05-04T21:15:56.000Z,29.99
2023-05-04T21:18:23.598Z,30.54
2023-05-04T21:20:51.291Z,31.06
2023-05-04T21:23:18.974Z,31.87
2023-05-04T21:25:46.875Z,32.39
2023-05-04T21:28:14.561Z,32.60
2023-05-04T21:30:42.664Z,31.83
2023-05-04T21:33:10.296Z,31.80
2023-05-04T21:35:37.880Z,32.04
2023-05-04T21:38:05.503Z,32.79
2023-05-04T21:40:33.064Z,33.63
2023-05-04T21:43:01.914Z,33.49
2023-05-04T21:45:33.273Z,34.64
2023-05-04T21:48:02.715Z,34.18
2023-05-04T21:50:30.897Z,33.25
2023-05-04T21:52:58.585Z,33.45
2023-05-04T21:55:26.203Z,33.65
2023-05-04T21:57:53.820Z,34.34
2023-05-04T22:00:22.204Z,35.17
2023-05-04T22:02:49.929Z,36.01
2023-05-04T22:05:21.965Z,36.81
2023-05-04T22:07:50.385Z,37.42
2023-05-04T22:10:18.168Z,39.38
2023-05-04T22:12:45.884Z,39.16
2023-05-04T22:15:14.081Z,38.59
2023-05-04T22:17:41.915Z,37.42
2023-05-04T22:20:10.770Z,38.67
2023-05-04T22:22:38.361Z,38.20
2023-05-04T22:25:07.101Z,38.63
2023-05-04T22:27:34.747Z,39.29
2023-05-04T22:30:02.341Z,38.57
2023-05-04T22:32:30.297Z,39.31
2023-05-04T22:34:57.939Z,39.68
2023-05-04T22:37:25.535Z,39.66
2023-05-04T22:39:53.204Z,40.28
2023-05-04T22:42:20.889Z,39.92
2023-05-04T22:44:48.429Z,40.29
2023-05-04T22:47:16.534Z,41.00
2023-05-04T22:49:44.187Z,41.82
2023-05-04T22:52:12.503Z,42.37
2023-05-04T22:54:40.124Z,43.32
2023-05-04T22:57:07.833Z,43.55
2023-05-04T22:59:35.691Z,45.50
2023-05-04T23:02:03.447Z,43.38
2023-05-04T23:04:31.462Z,43.25
2023-05-04T23:06:59.245Z,44.97
2023-05-04T23:09:27.039Z,46.98
2023-05-04T23:11:54.944Z,46.48
2023-05-04T23:14:22.848Z,45.74
2023-05-04T23:16:50.562Z,47.18
2023-05-04T23:19:18.175Z,47.27
2023-05-04T23:21:45.978Z,47.03
2023-05-04T23:24:13.670Z,46.65
2023-05-04T23:26:42.147Z,46.92
2023-05-04T23:29:09.698Z,48.06
2023-05-04T23:31:37.333Z,48.13
2023-05-04T23:34:05.089Z,48.54
2023-05-04T23:36:32.995Z,48.25
2023-05-04T23:39:00.571Z,47.83
2023-05-04T23:41:28.647Z,47.89
2023-05-04T23:43:59.419Z,47.92
2023-05-04T23:46:27.056Z,47.17
2023-05-04T23:48:54.859Z,46.50
2023-05-04T23:51:22.427Z,46.37
2023-05-04T23:53:49.953Z,47.04
2023-05-04T23:56:17.589Z,48.10
2023-05-04T23:58:45.915Z,49.32
